Terminal Aerodrome Forecast
Issued by NWS

Home | Current Version | Previous Version | Text Only | Print | Product List | Glossary On
Versions: 1 2 3 4 5 6 7 8 9 10 11 12 13
000
FTUS45 KABQ 061727
TAFTCC
TAF
KTCC 061727Z 0618/0718 02015G25KT P6SM VCSH SCT060 BKN090
     FM062000 03015G22KT P6SM VCTS BKN060CB BKN090
      TEMPO 0621/0701 5SM TSRA OVC045CB
     FM070100 04018G28KT P6SM VCTS BKN040CB BKN080
     FM070400 04015KT 5SM -SHRA BR OVC025
     FM071000 03010KT P6SM OVC030
     FM071600 06008KT P6SM BKN030 BKN070=

USA.gov is the U.S. government's official web portal to all federal, state and local government web resources and services.